Time;durP1;ratioP1;P1;durP2;ratioP2;P2;SDS_P1;SDS_P2;PMS_P1;PMS_P2;Temp;Humidity;BMP_temperature;BMP_pressure;BME280_temperature;BME280_humidity;BME280_pressure;Samples;Min_cycle;Max_cycle;Signal;HPM_P1;HPM_P2
2022/09/30 00:02:14;;;;;;;0.88;0.88;;;;;;;;;;5094791;28;20047;-85
2022/09/30 00:04:40;;;;;;;2.85;1.33;;;;;;;;;;5091896;28;20615;-83
2022/09/30 00:07:05;;;;;;;1.33;1.00;;;;;;;;;;5091810;28;20028;-83
2022/09/30 00:09:30;;;;;;;1.52;1.38;;;;;;;;;;5093701;28;20169;-84
2022/09/30 00:11:56;;;;;;;1.00;0.65;;;;;;;;;;5094791;28;20024;-85
2022/09/30 00:14:22;;;;;;;1.27;0.95;;;;;;;;;;5093554;28;20020;-83
2022/09/30 00:16:48;;;;;;;0.30;0.30;;;;;;;;;;5085828;28;20110;-83
2022/09/30 00:19:14;;;;;;;1.00;0.93;;;;;;;;;;5089464;28;20469;-84
2022/09/30 00:21:41;;;;;;;1.35;1.02;;;;;;;;;;5091513;28;20028;-84
2022/09/30 00:24:07;;;;;;;1.10;0.90;;;;;;;;;;5093280;28;20504;-85
2022/09/30 00:26:33;;;;;;;0.50;0.47;;;;;;;;;;5091050;28;20028;-82
2022/09/30 00:29:00;;;;;;;0.30;0.30;;;;;;;;;;5089552;28;20024;-83
2022/09/30 00:31:29;;;;;;;0.95;0.85;;;;;;;;;;5086825;28;20027;-83
2022/09/30 00:34:06;;;;;;;1.42;1.05;;;;;;;;;;5087605;28;20028;-83
2022/09/30 00:36:36;;;;;;;0.85;0.68;;;;;;;;;;5088500;28;20386;-83
2022/09/30 00:39:02;;;;;;;;;;;;;;;;;;5091714;28;20024;-84
2022/09/30 00:41:28;;;;;;;0.73;0.50;;;;;;;;;;5087710;28;20022;-84
2022/09/30 00:43:53;;;;;;;1.05;0.73;;;;;;;;;;5090257;28;21862;-83
2022/09/30 00:46:39;;;;;;;8.60;1.45;;;;;;;;;;5089753;28;20024;-84
2022/09/30 00:49:12;;;;;;;1.58;1.05;;;;;;;;;;5090734;28;20024;-84
2022/09/30 00:51:44;;;;;;;1.38;0.60;;;;;;;;;;5090583;28;20101;-84
2022/09/30 00:54:15;;;;;;;2.75;1.15;;;;;;;;;;5089156;28;20107;-84
2022/09/30 00:56:48;;;;;;;1.30;1.10;;;;;;;;;;5090062;28;20111;-83
2022/09/30 00:59:24;;;;;;;1.38;1.05;;;;;;;;;;5088556;28;20085;-84
2022/09/30 01:01:50;;;;;;;1.42;0.80;;;;;;;;;;5086854;28;20059;-84
2022/09/30 01:04:28;;;;;;;2.20;1.23;;;;;;;;;;5090996;28;20052;-84
2022/09/30 01:06:53;;;;;;;1.73;0.85;;;;;;;;;;5087172;28;20368;-85
2022/09/30 01:09:19;;;;;;;1.67;0.60;;;;;;;;;;5090084;28;20031;-84
2022/09/30 01:11:46;;;;;;;1.58;0.85;;;;;;;;;;5088723;28;20043;-85
2022/09/30 01:14:18;;;;;;;1.05;0.80;;;;;;;;;;5087207;28;20107;-85
2022/09/30 01:16:44;;;;;;;0.35;0.32;;;;;;;;;;5090128;28;20500;-84
2022/09/30 01:19:33;;;;;;;1.02;0.88;;;;;;;;;;5091524;28;20099;-84
2022/09/30 01:21:58;;;;;;;1.77;1.25;;;;;;;;;;5089644;28;20024;-85
2022/09/30 01:24:46;;;;;;;1.33;0.82;;;;;;;;;;5090476;28;20032;-84
2022/09/30 01:27:37;;;;;;;6.63;0.98;;;;;;;;;;5089149;28;20110;-84
2022/09/30 01:30:28;;;;;;;1.00;0.93;;;;;;;;;;5059195;28;20088;-84
2022/09/30 01:33:15;;;;;;;2.88;1.80;;;;;;;;;;5079786;28;20047;-84
2022/09/30 01:35:49;;;;;;;1.80;1.08;;;;;;;;;;5090816;28;20033;-84
2022/09/30 01:38:28;;;;;;;2.58;1.83;;;;;;;;;;5088550;28;20024;-84
2022/09/30 01:41:11;;;;;;;2.05;1.48;;;;;;;;;;5087439;28;20107;-84
2022/09/30 01:44:16;;;;;;;0.90;0.52;;;;;;;;;;5087709;28;20047;-84
2022/09/30 01:46:49;;;;;;;1.77;1.58;;;;;;;;;;5066458;28;20032;-83
2022/09/30 01:49:33;;;;;;;1.48;0.98;;;;;;;;;;5090773;28;20031;-83
2022/09/30 01:52:03;;;;;;;1.60;1.13;;;;;;;;;;5086434;28;20034;-83
2022/09/30 01:54:36;;;;;;;1.92;1.05;;;;;;;;;;5088581;28;20066;-83
2022/09/30 01:57:11;;;;;;;1.83;1.30;;;;;;;;;;5090006;28;20812;-83
2022/09/30 01:59:46;;;;;;;1.42;1.13;;;;;;;;;;5088375;28;20099;-83
2022/09/30 02:02:18;;;;;;;1.30;0.93;;;;;;;;;;5089054;28;20117;-83
2022/09/30 02:04:52;;;;;;;2.00;1.48;;;;;;;;;;5087272;28;20031;-82
2022/09/30 02:07:25;;;;;;;2.72;1.40;;;;;;;;;;5087217;28;20034;-83
2022/09/30 02:09:58;;;;;;;1.38;0.95;;;;;;;;;;5088379;28;20069;-83
2022/09/30 02:12:29;;;;;;;1.13;0.93;;;;;;;;;;5085896;28;20028;-83
2022/09/30 02:15:12;;;;;;;1.20;1.10;;;;;;;;;;5090054;28;20020;-83
2022/09/30 02:17:45;;;;;;;1.23;0.90;;;;;;;;;;5088155;28;20111;-83
2022/09/30 02:20:16;;;;;;;1.45;1.35;;;;;;;;;;5087680;28;20392;-83
2022/09/30 02:22:53;;;;;;;1.80;1.10;;;;;;;;;;5082322;28;20051;-83
2022/09/30 02:25:26;;;;;;;1.58;1.13;;;;;;;;;;5088198;28;20020;-83
2022/09/30 02:28:07;;;;;;;2.05;1.23;;;;;;;;;;5087062;28;20029;-83
2022/09/30 02:30:35;;;;;;;4.18;1.88;;;;;;;;;;5087667;28;20480;-84
2022/09/30 02:33:05;;;;;;;1.88;1.60;;;;;;;;;;5086362;28;20036;-84
2022/09/30 02:35:35;;;;;;;1.80;1.65;;;;;;;;;;5090112;28;20111;-83
2022/09/30 02:38:05;;;;;;;3.20;1.83;;;;;;;;;;5087852;28;20422;-84
2022/09/30 02:40:53;;;;;;;;;;;;;;;;;;5087557;28;20035;-83
2022/09/30 02:43:20;;;;;;;0.73;0.52;;;;;;;;;;5081349;28;19916;-84
2022/09/30 02:46:02;;;;;;;1.65;1.00;;;;;;;;;;5090301;28;20024;-83
2022/09/30 02:48:36;;;;;;;0.85;0.75;;;;;;;;;;5090267;28;20348;-83
2022/09/30 02:51:10;;;;;;;1.30;0.93;;;;;;;;;;5090977;28;20073;-83
2022/09/30 02:53:50;;;;;;;8.07;1.20;;;;;;;;;;5087434;28;20105;-83
2022/09/30 02:56:18;;;;;;;;;;;;;;;;;;5089038;28;20426;-84
2022/09/30 02:58:44;;;;;;;2.05;1.25;;;;;;;;;;5090970;28;19918;-83
2022/09/30 03:01:13;;;;;;;3.33;2.03;;;;;;;;;;5090834;28;20024;-83
2022/09/30 03:03:56;;;;;;;2.55;1.67;;;;;;;;;;5089306;28;20123;-84
2022/09/30 03:06:22;;;;;;;2.85;1.58;;;;;;;;;;5087219;28;20111;-83
2022/09/30 03:08:47;;;;;;;4.10;1.63;;;;;;;;;;5083804;28;20475;-84
2022/09/30 03:11:23;;;;;;;2.95;2.13;;;;;;;;;;5090475;28;20073;-83
2022/09/30 03:14:13;;;;;;;6.70;1.60;;;;;;;;;;5089004;28;20016;-83
2022/09/30 03:17:03;;;;;;;2.47;1.80;;;;;;;;;;5088969;28;20043;-83
2022/09/30 03:19:50;;;;;;;1.38;0.95;;;;;;;;;;5087315;28;20024;-82
2022/09/30 03:22:22;;;;;;;1.40;1.30;;;;;;;;;;5086926;28;20032;-83
2022/09/30 03:25:08;;;;;;;1.00;0.90;;;;;;;;;;5084433;28;20020;-83
2022/09/30 03:27:52;;;;;;;2.20;1.30;;;;;;;;;;5086700;28;20026;-83
2022/09/30 03:30:27;;;;;;;1.35;0.93;;;;;;;;;;5085568;28;20024;-83
2022/09/30 03:33:12;;;;;;;0.40;0.40;;;;;;;;;;5087261;28;20043;-84
2022/09/30 03:35:49;;;;;;;2.55;1.95;;;;;;;;;;5086772;28;20494;-82
2022/09/30 03:38:37;;;;;;;2.38;1.58;;;;;;;;;;5088688;28;20666;-83
2022/09/30 03:41:53;;;;;;;2.17;1.95;;;;;;;;;;5086941;28;20141;-83
2022/09/30 03:44:27;;;;;;;1.67;1.15;;;;;;;;;;5071904;28;20048;-83
2022/09/30 03:47:00;;;;;;;1.17;1.00;;;;;;;;;;5087025;28;20046;-83
2022/09/30 03:49:34;;;;;;;2.30;1.20;;;;;;;;;;5089862;28;20024;-84
2022/09/30 03:52:05;;;;;;;3.60;2.53;;;;;;;;;;5086896;28;21437;-83
2022/09/30 03:54:31;;;;;;;2.20;1.70;;;;;;;;;;5088898;28;20020;-83
2022/09/30 03:56:57;;;;;;;0.70;0.70;;;;;;;;;;5083006;28;20480;-83
2022/09/30 03:59:27;;;;;;;2.00;1.33;;;;;;;;;;5084615;28;20035;-83
2022/09/30 04:01:55;;;;;;;4.75;0.90;;;;;;;;;;5086938;28;20020;-84
2022/09/30 04:04:21;;;;;;;1.95;0.98;;;;;;;;;;5084892;28;20046;-83
2022/09/30 04:06:46;;;;;;;0.88;0.75;;;;;;;;;;5083791;28;20028;-83
2022/09/30 04:09:12;;;;;;;0.70;0.70;;;;;;;;;;5085755;28;20024;-83
2022/09/30 04:11:37;;;;;;;3.67;1.15;;;;;;;;;;5088829;28;20039;-82
2022/09/30 04:14:03;;;;;;;1.63;0.88;;;;;;;;;;5087211;28;20020;-83
2022/09/30 04:16:29;;;;;;;1.25;1.15;;;;;;;;;;5086706;28;20031;-83
2022/09/30 04:18:55;;;;;;;1.90;1.17;;;;;;;;;;5087204;28;20024;-83
2022/09/30 04:21:21;;;;;;;1.60;1.15;;;;;;;;;;5088233;28;20482;-82
2022/09/30 04:23:48;;;;;;;1.00;0.90;;;;;;;;;;5087213;28;20111;-84
2022/09/30 04:26:16;;;;;;;0.80;0.73;;;;;;;;;;5089636;28;20032;-83
2022/09/30 04:28:42;;;;;;;0.55;0.55;;;;;;;;;;5084795;28;20032;-83
2022/09/30 04:31:10;;;;;;;0.77;0.47;;;;;;;;;;5088256;28;20142;-83
2022/09/30 04:33:36;;;;;;;1.88;1.05;;;;;;;;;;5087665;28;20035;-83
2022/09/30 04:36:02;;;;;;;1.15;0.90;;;;;;;;;;5078989;28;20391;-83
2022/09/30 04:38:28;;;;;;;1.92;1.05;;;;;;;;;;5086946;28;20478;-84
2022/09/30 04:40:54;;;;;;;3.20;1.20;;;;;;;;;;5085209;28;20467;-83
2022/09/30 04:43:23;;;;;;;1.17;1.08;;;;;;;;;;5092912;28;20463;-84
2022/09/30 04:45:51;;;;;;;2.07;1.80;;;;;;;;;;5092192;28;20069;-84
2022/09/30 04:48:17;;;;;;;1.25;0.68;;;;;;;;;;5087971;28;20082;-82
2022/09/30 04:50:43;;;;;;;0.98;0.60;;;;;;;;;;5089038;28;21748;-82
2022/09/30 04:53:11;;;;;;;0.93;0.73;;;;;;;;;;5092635;28;20028;-82
2022/09/30 04:55:37;;;;;;;1.38;1.02;;;;;;;;;;5091500;28;20032;-82
2022/09/30 04:58:03;;;;;;;1.73;0.70;;;;;;;;;;5089098;28;20391;-83
2022/09/30 05:00:29;;;;;;;1.02;0.93;;;;;;;;;;5091659;28;20035;-83
2022/09/30 05:02:54;;;;;;;1.02;1.02;;;;;;;;;;5089613;28;20509;-83
2022/09/30 05:05:20;;;;;;;2.70;2.00;;;;;;;;;;5090291;28;20031;-84
2022/09/30 05:07:45;;;;;;;9.02;6.65;;;;;;;;;;5090377;28;20445;-83
2022/09/30 05:10:11;;;;;;;3.15;2.25;;;;;;;;;;5087011;28;20044;-83
2022/09/30 05:12:38;;;;;;;1.80;1.45;;;;;;;;;;5091229;28;20432;-83
2022/09/30 05:15:04;;;;;;;2.45;1.55;;;;;;;;;;5088208;28;20031;-82
2022/09/30 05:17:30;;;;;;;1.35;1.23;;;;;;;;;;5091952;28;20032;-83
2022/09/30 05:19:56;;;;;;;2.08;1.38;;;;;;;;;;5088858;28;20051;-82
2022/09/30 05:22:23;;;;;;;3.03;1.98;;;;;;;;;;5090883;28;20032;-83
2022/09/30 05:24:49;;;;;;;4.88;3.42;;;;;;;;;;5086098;28;20028;-83
2022/09/30 05:27:16;;;;;;;3.20;2.85;;;;;;;;;;5087190;28;20024;-84
2022/09/30 05:29:42;;;;;;;2.60;1.70;;;;;;;;;;5088640;28;20030;-84
2022/09/30 05:32:08;;;;;;;6.70;2.72;;;;;;;;;;5088593;28;20039;-82
2022/09/30 05:34:33;;;;;;;2.63;1.80;;;;;;;;;;5088802;28;20372;-83
2022/09/30 05:36:59;;;;;;;3.47;1.98;;;;;;;;;;5091746;28;20143;-83
2022/09/30 05:39:24;;;;;;;2.88;2.08;;;;;;;;;;5088075;28;20078;-84
2022/09/30 05:41:49;;;;;;;3.35;2.08;;;;;;;;;;5090273;28;20451;-82
2022/09/30 05:44:15;;;;;;;2.88;1.60;;;;;;;;;;5089350;28;20456;-83
2022/09/30 05:46:42;;;;;;;2.15;1.65;;;;;;;;;;5087230;28;20107;-85
2022/09/30 05:49:07;;;;;;;1.38;1.20;;;;;;;;;;5092987;28;20057;-83
2022/09/30 05:51:33;;;;;;;3.08;2.28;;;;;;;;;;5091012;28;20020;-82
2022/09/30 05:53:58;;;;;;;2.45;1.42;;;;;;;;;;5090579;28;20024;-84
2022/09/30 05:56:24;;;;;;;1.77;1.02;;;;;;;;;;5090749;28;20035;-83
2022/09/30 05:58:49;;;;;;;2.75;1.00;;;;;;;;;;5089484;28;20032;-85
2022/09/30 06:01:15;;;;;;;6.05;3.70;;;;;;;;;;5090932;28;20038;-82
2022/09/30 06:03:45;;;;;;;4.93;3.33;;;;;;;;;;5088212;28;20062;-84
2022/09/30 06:06:11;;;;;;;6.18;4.43;;;;;;;;;;5089759;28;20020;-83
2022/09/30 06:08:39;;;;;;;6.03;3.53;;;;;;;;;;5091869;28;20051;-83
2022/09/30 06:11:13;;;;;;;2.47;1.60;;;;;;;;;;5091002;28;20023;-84
2022/09/30 06:13:40;;;;;;;3.42;2.95;;;;;;;;;;5089153;28;20032;-82
2022/09/30 06:16:06;;;;;;;3.50;2.20;;;;;;;;;;5087338;28;20724;-84
2022/09/30 06:18:32;;;;;;;11.18;3.22;;;;;;;;;;5089329;28;20028;-83
2022/09/30 06:20:59;;;;;;;5.35;3.17;;;;;;;;;;5088179;28;20147;-84
2022/09/30 06:23:25;;;;;;;4.30;3.28;;;;;;;;;;5084400;28;20025;-83
2022/09/30 06:25:51;;;;;;;4.15;2.38;;;;;;;;;;5091006;28;20459;-86
2022/09/30 06:28:18;;;;;;;2.97;2.08;;;;;;;;;;5086347;28;20028;-84
2022/09/30 06:30:43;;;;;;;3.88;2.85;;;;;;;;;;5087345;28;20032;-85
2022/09/30 06:33:09;;;;;;;1.88;1.65;;;;;;;;;;5083828;28;20023;-83
2022/09/30 06:35:35;;;;;;;22.17;15.32;;;;;;;;;;5091046;28;20032;-83
2022/09/30 06:38:01;;;;;;;6.20;4.63;;;;;;;;;;5088509;28;20111;-85
2022/09/30 06:40:26;;;;;;;5.60;2.85;;;;;;;;;;5087098;28;20823;-82
2022/09/30 06:42:58;;;;;;;6.15;2.10;;;;;;;;;;5090019;28;20032;-84
2022/09/30 06:45:24;;;;;;;1.85;1.50;;;;;;;;;;5089983;28;20075;-83
2022/09/30 06:47:50;;;;;;;4.57;3.05;;;;;;;;;;5088129;28;20060;-84
2022/09/30 06:50:16;;;;;;;2.47;2.17;;;;;;;;;;5090901;28;20046;-83
2022/09/30 06:52:42;;;;;;;2.00;1.30;;;;;;;;;;5081784;28;20475;-81
2022/09/30 06:55:07;;;;;;;3.30;1.55;;;;;;;;;;5081492;28;20066;-83
2022/09/30 06:57:34;;;;;;;2.83;1.52;;;;;;;;;;5086727;28;20026;-83
2022/09/30 07:00:01;;;;;;;3.83;2.17;;;;;;;;;;5084529;28;20019;-83
2022/09/30 07:02:27;;;;;;;5.18;2.85;;;;;;;;;;5087267;28;20054;-81
2022/09/30 07:04:53;;;;;;;2.90;2.40;;;;;;;;;;5086309;28;20487;-81
2022/09/30 07:07:21;;;;;;;4.03;2.58;;;;;;;;;;5087750;28;20099;-83
2022/09/30 07:09:46;;;;;;;3.90;2.97;;;;;;;;;;5087222;28;20032;-81
2022/09/30 07:12:12;;;;;;;2.67;2.03;;;;;;;;;;5081423;28;20024;-80
2022/09/30 07:14:37;;;;;;;4.40;2.92;;;;;;;;;;5087150;28;20743;-81
2022/09/30 07:17:05;;;;;;;3.95;2.75;;;;;;;;;;5080713;28;20027;-82
2022/09/30 07:19:33;;;;;;;4.53;2.38;;;;;;;;;;5084699;28;20078;-81
2022/09/30 07:22:41;;;;;;;4.30;2.90;;;;;;;;;;5089513;28;20418;-81
2022/09/30 07:24:46;;;;;;;6.43;4.53;;;;;;;;;;5077581;28;20055;-82
2022/09/30 07:27:12;;;;;;;3.85;2.45;;;;;;;;;;5084584;28;20028;-82
2022/09/30 07:29:38;;;;;;;5.75;2.83;;;;;;;;;;5082578;28;20051;-82
2022/09/30 07:32:04;;;;;;;7.18;2.17;;;;;;;;;;5090500;28;20028;-81
2022/09/30 07:34:29;;;;;;;4.25;1.73;;;;;;;;;;5089238;28;20087;-81
2022/09/30 07:36:55;;;;;;;3.47;2.80;;;;;;;;;;5087877;28;20487;-81
2022/09/30 07:39:20;;;;;;;4.43;2.80;;;;;;;;;;5085632;28;20524;-81
2022/09/30 07:41:45;;;;;;;5.30;2.95;;;;;;;;;;5086941;28;20027;-82
2022/09/30 07:44:13;;;;;;;5.82;3.17;;;;;;;;;;5084818;28;20048;-81
2022/09/30 07:46:39;;;;;;;7.07;4.43;;;;;;;;;;5086933;28;20020;-82
2022/09/30 07:49:07;;;;;;;3.80;1.90;;;;;;;;;;5088604;28;20067;-82
2022/09/30 07:51:36;;;;;;;8.52;3.03;;;;;;;;;;5088732;28;20479;-82
2022/09/30 07:54:14;;;;;;;4.45;2.38;;;;;;;;;;5087820;28;20027;-81
2022/09/30 07:56:40;;;;;;;4.95;3.08;;;;;;;;;;5087154;28;20042;-82
2022/09/30 07:59:06;;;;;;;4.05;2.95;;;;;;;;;;5086775;28;20043;-82
2022/09/30 08:01:33;;;;;;;6.63;3.28;;;;;;;;;;5086148;28;20050;-82
2022/09/30 08:04:01;;;;;;;4.18;2.97;;;;;;;;;;5088485;28;20052;-82
2022/09/30 08:06:28;;;;;;;7.80;4.28;;;;;;;;;;5087081;28;20057;-81
2022/09/30 08:08:55;;;;;;;5.75;3.05;;;;;;;;;;5086506;28;20031;-82
2022/09/30 08:11:21;;;;;;;10.25;3.97;;;;;;;;;;5088632;28;20526;-81
2022/09/30 08:13:52;;;;;;;8.18;4.50;;;;;;;;;;5086715;28;20361;-82
2022/09/30 08:16:18;;;;;;;9.10;4.10;;;;;;;;;;5088909;28;20028;-82
2022/09/30 08:18:44;;;;;;;5.72;3.83;;;;;;;;;;5083536;28;20079;-81
2022/09/30 08:21:09;;;;;;;12.50;3.53;;;;;;;;;;5091589;28;20052;-81
2022/09/30 08:23:35;;;;;;;6.90;3.50;;;;;;;;;;5091965;28;20126;-83
2022/09/30 08:26:03;;;;;;;6.05;3.13;;;;;;;;;;5093191;28;20386;-82
2022/09/30 08:28:30;;;;;;;6.43;3.70;;;;;;;;;;5091381;28;20075;-82
2022/09/30 08:31:06;;;;;;;7.55;3.85;;;;;;;;;;5091128;28;20020;-83
2022/09/30 08:33:33;;;;;;;12.05;2.70;;;;;;;;;;5091531;28;20404;-82
2022/09/30 08:36:22;;;;;;;9.30;1.50;;;;;;;;;;5092313;28;20161;-82
2022/09/30 08:38:49;;;;;;;1.00;0.70;;;;;;;;;;5090740;28;20031;-82
2022/09/30 08:41:14;;;;;;;3.10;2.13;;;;;;;;;;5088339;28;20043;-83
2022/09/30 08:43:58;;;;;;;2.92;1.80;;;;;;;;;;5087870;28;20040;-81
2022/09/30 08:46:44;;;;;;;2.13;1.77;;;;;;;;;;5093013;28;20027;-83
2022/09/30 08:49:31;;;;;;;2.35;1.55;;;;;;;;;;5087600;28;20046;-81
2022/09/30 08:52:00;;;;;;;2.67;1.65;;;;;;;;;;5086675;28;20520;-82
2022/09/30 08:54:31;;;;;;;1.88;1.40;;;;;;;;;;5087914;28;20028;-82
2022/09/30 08:56:57;;;;;;;6.60;2.03;;;;;;;;;;5085950;28;20040;-82
2022/09/30 08:59:37;;;;;;;2.38;1.95;;;;;;;;;;5090572;28;20039;-82
2022/09/30 09:02:23;;;;;;;3.15;1.85;;;;;;;;;;5088522;28;20028;-82
2022/09/30 09:04:51;;;;;;;3.60;2.30;;;;;;;;;;5086569;28;20036;-82
2022/09/30 09:07:37;;;;;;;1.58;1.13;;;;;;;;;;5088640;28;20061;-84
2022/09/30 09:10:17;;;;;;;1.38;1.13;;;;;;;;;;5090995;28;20038;-84
2022/09/30 09:13:15;;;;;;;2.03;1.40;;;;;;;;;;5086517;28;20103;-81
2022/09/30 09:16:01;;;;;;;2.72;1.23;;;;;;;;;;5054340;28;20047;-83
2022/09/30 09:18:56;;;;;;;2.92;1.48;;;;;;;;;;5088066;28;20141;-84
2022/09/30 09:21:53;;;;;;;4.10;2.17;;;;;;;;;;5089452;28;20456;-82
2022/09/30 09:24:31;;;;;;;0.88;0.50;;;;;;;;;;5072735;28;20055;-81
2022/09/30 09:26:58;;;;;;;1.55;0.80;;;;;;;;;;5082391;28;20043;-81
2022/09/30 09:29:35;;;;;;;1.98;1.27;;;;;;;;;;5087405;28;20020;-83
2022/09/30 09:32:02;;;;;;;1.88;1.52;;;;;;;;;;5084092;28;20034;-82
2022/09/30 09:34:30;;;;;;;2.80;1.92;;;;;;;;;;5084723;28;20073;-82
2022/09/30 09:37:09;;;;;;;5.00;1.95;;;;;;;;;;5085646;28;20020;-85
2022/09/30 09:40:02;;;;;;;2.75;1.67;;;;;;;;;;5087745;28;20433;-86
2022/09/30 09:42:37;;;;;;;2.75;1.52;;;;;;;;;;5085463;28;20388;-84
2022/09/30 09:45:25;;;;;;;2.55;1.90;;;;;;;;;;5087568;28;20076;-84
2022/09/30 09:47:52;;;;;;;2.53;1.98;;;;;;;;;;5090896;28;20453;-84
2022/09/30 09:50:35;;;;;;;7.07;1.92;;;;;;;;;;5091499;28;20030;-84
2022/09/30 09:53:10;;;;;;;2.53;1.52;;;;;;;;;;5091793;28;20104;-84
2022/09/30 09:55:37;;;;;;;1.55;1.35;;;;;;;;;;5089475;28;20024;-85
2022/09/30 09:58:16;;;;;;;3.00;1.77;;;;;;;;;;5089109;28;20365;-84
2022/09/30 10:03:23;;;;;;;2.40;1.60;;;;;;;;;;5090092;28;20129;-85
2022/09/30 10:06:03;;;;;;;2.70;1.85;;;;;;;;;;5088766;28;20025;-84
2022/09/30 10:08:31;;;;;;;2.65;1.60;;;;;;;;;;5088742;28;20476;-84
2022/09/30 10:10:59;;;;;;;2.20;1.77;;;;;;;;;;5088929;28;20103;-83
2022/09/30 10:13:46;;;;;;;1.52;1.05;;;;;;;;;;5092044;28;20027;-84
2022/09/30 10:16:34;;;;;;;0.75;0.70;;;;;;;;;;5090342;28;20028;-85
2022/09/30 10:19:01;;;;;;;1.08;0.73;;;;;;;;;;5091175;28;20023;-84
2022/09/30 10:21:28;;;;;;;1.80;1.05;;;;;;;;;;5088200;28;20420;-86
2022/09/30 10:23:53;;;;;;;2.58;1.40;;;;;;;;;;5089035;28;20039;-85
2022/09/30 10:26:21;;;;;;;2.80;1.63;;;;;;;;;;5088728;28;20380;-85
2022/09/30 10:28:55;;;;;;;2.83;1.80;;;;;;;;;;5089721;28;20102;-86
2022/09/30 10:31:37;;;;;;;1.42;1.00;;;;;;;;;;5088218;28;20115;-86
2022/09/30 10:34:29;;;;;;;4.28;1.63;;;;;;;;;;5087646;28;20027;-84
2022/09/30 10:36:56;;;;;;;1.48;1.20;;;;;;;;;;5085517;28;20016;-86
2022/09/30 10:39:23;;;;;;;2.22;1.40;;;;;;;;;;5085384;28;20077;-85
2022/09/30 10:41:59;;;;;;;2.28;1.35;;;;;;;;;;5089728;28;20104;-84
2022/09/30 10:44:26;;;;;;;1.60;1.20;;;;;;;;;;5088986;28;20098;-84
2022/09/30 10:46:58;;;;;;;3.65;1.40;;;;;;;;;;5088913;28;20089;-85
2022/09/30 10:49:27;;;;;;;2.70;1.50;;;;;;;;;;5086421;28;20034;-85
2022/09/30 10:51:54;;;;;;;3.10;1.73;;;;;;;;;;5085937;28;20032;-85
2022/09/30 10:54:44;;;;;;;2.13;1.48;;;;;;;;;;5090751;28;20770;-85
2022/09/30 10:57:25;;;;;;;0.93;0.93;;;;;;;;;;5088918;28;20352;-86
2022/09/30 10:59:59;;;;;;;1.13;0.90;;;;;;;;;;5083747;28;20381;-83
2022/09/30 11:02:40;;;;;;;1.15;0.80;;;;;;;;;;5087285;28;20035;-83
2022/09/30 11:05:21;;;;;;;2.28;1.40;;;;;;;;;;5089276;28;20505;-84
2022/09/30 11:08:24;;;;;;;2.03;1.13;;;;;;;;;;5090206;28;20632;-85
2022/09/30 11:10:52;;;;;;;2.80;1.17;;;;;;;;;;5081778;28;20117;-84
2022/09/30 11:13:26;;;;;;;1.17;0.88;;;;;;;;;;5089077;28;20559;-85
2022/09/30 11:16:19;;;;;;;1.00;0.90;;;;;;;;;;5087735;28;20085;-84
2022/09/30 11:19:09;;;;;;;1.42;1.23;;;;;;;;;;5083927;28;20480;-84
2022/09/30 11:22:10;;;;;;;;;;;;;;;;;;5086663;28;20071;-82
2022/09/30 11:24:38;;;;;;;1.73;0.85;;;;;;;;;;5028784;28;19921;-86
2022/09/30 11:27:38;;;;;;;1.35;0.93;;;;;;;;;;5074423;28;20051;-85
2022/09/30 11:30:22;;;;;;;;;;;;;;;;;;5085615;28;20525;-84
2022/09/30 11:33:09;;;;;;;1.05;0.95;;;;;;;;;;5086688;28;19912;-85
2022/09/30 11:35:50;;;;;;;0.82;0.77;;;;;;;;;;5085674;28;20468;-84
2022/09/30 11:38:41;;;;;;;0.93;0.80;;;;;;;;;;5084537;28;20075;-85
2022/09/30 11:41:23;;;;;;;1.75;1.10;;;;;;;;;;5061320;28;20040;-83
2022/09/30 11:43:49;;;;;;;2.15;1.35;;;;;;;;;;5076132;28;20028;-83
2022/09/30 11:46:42;;;;;;;0.57;0.47;;;;;;;;;;5081915;28;20146;-82
2022/09/30 11:49:27;;;;;;;0.90;0.70;;;;;;;;;;5084918;28;20024;-87
2022/09/30 11:52:13;;;;;;;2.03;0.77;;;;;;;;;;5095131;28;20527;-86
2022/09/30 11:54:53;;;;;;;0.60;0.50;;;;;;;;;;5089497;28;20016;-86
2022/09/30 11:57:42;;;;;;;0.85;0.85;;;;;;;;;;5089082;28;20555;-86
2022/09/30 12:00:18;;;;;;;0.82;0.70;;;;;;;;;;5064069;28;20557;-85
2022/09/30 12:02:54;;;;;;;1.83;1.00;;;;;;;;;;5088109;28;20028;-86
2022/09/30 12:05:24;;;;;;;1.05;0.80;;;;;;;;;;5089885;28;20028;-89
2022/09/30 12:08:02;;;;;;;1.02;0.80;;;;;;;;;;5088959;28;20028;-84
2022/09/30 12:10:33;;;;;;;0.73;0.68;;;;;;;;;;5092289;28;20099;-86
2022/09/30 12:13:16;;;;;;;2.13;1.42;;;;;;;;;;5091310;28;20024;-86
2022/09/30 12:15:44;;;;;;;0.70;0.70;;;;;;;;;;5089202;28;20027;-85
2022/09/30 12:18:14;;;;;;;1.08;0.90;;;;;;;;;;5091347;28;20070;-85
2022/09/30 12:20:50;;;;;;;1.30;0.77;;;;;;;;;;5090803;28;20036;-85
2022/09/30 12:23:30;;;;;;;0.65;0.65;;;;;;;;;;5112173;27;20031;-87
2022/09/30 12:26:03;;;;;;;0.80;0.80;;;;;;;;;;5091285;28;20390;-86
2022/09/30 12:31:41;;;;;;;1.10;0.93;;;;;;;;;;5092890;28;20038;-85
2022/09/30 12:34:31;;;;;;;0.85;0.77;;;;;;;;;;5092228;28;20059;-86
2022/09/30 12:37:34;;;;;;;0.95;0.70;;;;;;;;;;5091416;28;20056;-85
2022/09/30 12:40:21;;;;;;;0.70;0.60;;;;;;;;;;5092237;28;20479;-89
2022/09/30 12:43:05;;;;;;;1.08;0.90;;;;;;;;;;5092752;28;20430;-86
2022/09/30 12:45:49;;;;;;;0.80;0.63;;;;;;;;;;5093543;28;20111;-88
2022/09/30 12:48:19;;;;;;;4.55;0.80;;;;;;;;;;5090630;28;20069;-85
2022/09/30 12:50:51;;;;;;;1.15;0.82;;;;;;;;;;5093661;28;20027;-88
2022/09/30 12:53:24;;;;;;;0.93;0.65;;;;;;;;;;5092990;28;20161;-87
2022/09/30 12:55:51;;;;;;;0.90;0.77;;;;;;;;;;5091806;28;20110;-90
2022/09/30 12:58:32;;;;;;;0.75;0.63;;;;;;;;;;5093332;28;20040;-88
2022/09/30 13:01:23;;;;;;;1.02;0.80;;;;;;;;;;5092556;28;20031;-87
2022/09/30 13:04:08;;;;;;;0.77;0.77;;;;;;;;;;5082569;28;20483;-89
2022/09/30 13:06:45;;;;;;;1.27;0.90;;;;;;;;;;5092636;28;20024;-87
2022/09/30 13:09:10;;;;;;;0.43;0.43;;;;;;;;;;5087228;28;20058;-89
2022/09/30 13:11:39;;;;;;;0.50;0.50;;;;;;;;;;5091058;28;20051;-85
2022/09/30 13:14:14;;;;;;;1.73;0.75;;;;;;;;;;5093448;28;20463;-87
2022/09/30 13:17:21;;;;;;;0.52;0.47;;;;;;;;;;5093560;28;22055;-88
2022/09/30 13:19:52;;;;;;;0.80;0.70;;;;;;;;;;5087812;28;20020;-86
2022/09/30 13:22:18;;;;;;;0.60;0.60;;;;;;;;;;5091835;28;20103;-87
2022/09/30 13:25:04;;;;;;;0.63;0.63;;;;;;;;;;5092173;28;20099;-85
2022/09/30 13:27:34;;;;;;;1.75;0.80;;;;;;;;;;5090526;28;20051;-85
2022/09/30 13:30:00;;;;;;;0.93;0.60;;;;;;;;;;5091406;28;20043;-88
2022/09/30 13:32:36;;;;;;;0.47;0.47;;;;;;;;;;5094384;28;20379;-88
2022/09/30 13:35:01;;;;;;;0.50;0.50;;;;;;;;;;5091285;28;20019;-85
2022/09/30 13:37:33;;;;;;;0.52;0.52;;;;;;;;;;5093694;28;20028;-85
2022/09/30 13:40:02;;;;;;;0.82;0.60;;;;;;;;;;5091056;28;20543;-86
2022/09/30 13:42:38;;;;;;;3.13;0.63;;;;;;;;;;5088866;28;20387;-89
2022/09/30 13:45:04;;;;;;;1.00;0.60;;;;;;;;;;5090933;28;20492;-86
2022/09/30 13:47:42;;;;;;;0.40;0.40;;;;;;;;;;5092460;28;20051;-86
2022/09/30 13:50:30;;;;;;;0.75;0.65;;;;;;;;;;5093408;28;20038;-87
2022/09/30 13:53:01;;;;;;;0.55;0.50;;;;;;;;;;5086968;28;20058;-86
2022/09/30 13:55:34;;;;;;;1.10;0.60;;;;;;;;;;5088652;28;20020;-87
2022/09/30 13:58:00;;;;;;;0.63;0.60;;;;;;;;;;5092754;28;20082;-86
2022/09/30 14:00:52;;;;;;;0.90;0.60;;;;;;;;;;5093376;28;20024;-85
2022/09/30 14:03:43;;;;;;;0.98;0.50;;;;;;;;;;5090660;28;20030;-86
2022/09/30 14:06:30;;;;;;;0.55;0.50;;;;;;;;;;5088716;28;20035;-88
2022/09/30 14:09:14;;;;;;;0.55;0.55;;;;;;;;;;5091103;28;20047;-88
2022/09/30 14:11:51;;;;;;;0.50;0.47;;;;;;;;;;5091998;28;20062;-86
2022/09/30 14:14:54;;;;;;;1.10;0.70;;;;;;;;;;5087356;28;20020;-86
2022/09/30 14:17:46;;;;;;;0.77;0.68;;;;;;;;;;5093163;28;20475;-86
2022/09/30 14:20:28;;;;;;;0.40;0.40;;;;;;;;;;5059158;28;20036;-87
2022/09/30 14:22:55;;;;;;;0.70;0.63;;;;;;;;;;5092548;28;20361;-85
2022/09/30 14:25:21;;;;;;;0.45;0.45;;;;;;;;;;5091548;28;20475;-87
2022/09/30 14:27:56;;;;;;;0.40;0.40;;;;;;;;;;5089340;28;20030;-88
2022/09/30 14:30:21;;;;;;;0.70;0.60;;;;;;;;;;5090402;28;20092;-88
2022/09/30 14:32:49;;;;;;;0.85;0.63;;;;;;;;;;5090725;28;20467;-87
2022/09/30 14:35:20;;;;;;;1.20;0.70;;;;;;;;;;5092809;28;20016;-88
2022/09/30 14:37:59;;;;;;;0.30;0.30;;;;;;;;;;5090139;28;20456;-85
2022/09/30 14:40:29;;;;;;;0.57;0.57;;;;;;;;;;5086571;28;20765;-87
2022/09/30 14:43:01;;;;;;;0.60;0.60;;;;;;;;;;5088930;28;20024;-86
2022/09/30 14:45:30;;;;;;;1.00;0.43;;;;;;;;;;5090759;28;20024;-86
2022/09/30 14:48:01;;;;;;;0.70;0.68;;;;;;;;;;5089281;28;20048;-86
2022/09/30 14:50:30;;;;;;;0.98;0.80;;;;;;;;;;5091166;28;20107;-84
2022/09/30 14:52:57;;;;;;;0.22;0.22;;;;;;;;;;5089289;28;20032;-85
2022/09/30 14:55:33;;;;;;;2.15;0.85;;;;;;;;;;5085860;28;20069;-85
2022/09/30 14:58:22;;;;;;;0.43;0.43;;;;;;;;;;5090098;28;20091;-89
2022/09/30 15:00:57;;;;;;;0.45;0.40;;;;;;;;;;5087942;28;20032;-84
2022/09/30 15:03:24;;;;;;;0.80;0.60;;;;;;;;;;5089738;28;20153;-89
2022/09/30 15:05:49;;;;;;;0.40;0.35;;;;;;;;;;5090866;28;20031;-85
2022/09/30 15:08:18;;;;;;;0.50;0.40;;;;;;;;;;5090827;28;20027;-87
2022/09/30 15:10:50;;;;;;;0.47;0.33;;;;;;;;;;5087216;28;20050;-86
2022/09/30 15:13:22;;;;;;;3.72;0.63;;;;;;;;;;5089977;28;20019;-86
2022/09/30 15:15:48;;;;;;;0.40;0.40;;;;;;;;;;5090934;28;20059;-87
2022/09/30 15:18:43;;;;;;;0.55;0.55;;;;;;;;;;5091229;28;20057;-86
2022/09/30 15:21:14;;;;;;;1.15;0.52;;;;;;;;;;5089675;28;20036;-86
2022/09/30 15:23:52;;;;;;;0.50;0.43;;;;;;;;;;5088973;28;20028;-87
2022/09/30 15:26:23;;;;;;;0.47;0.47;;;;;;;;;;5087190;28;20111;-84